PWSweather.com
Personal Weather Stations
Station Observations
PICKERING
North Yorkshire, PickeringGB

North YorkshirePickeringGB

Lat: 54.2494, Lon: -0.7725

Elevation: 192

Station Type: Oregon Scientific WMR100

http://www.yorkshirewalker.co.uk/weather/

High Low Average
Temperature 79.2°F26.2°C 44.6°F7.0°C 62.5°F16.9°C
Dew Point 57.2°F14.0°C 37.4°F3.0°C 47.9°F8.8°C
Winds 5.9 mph 9.5 kmh Calm Calm 2.0 mph SE3.2 kmh SE
Wind Gusts 12.3 mph19.8 kmh -- 4.0 mph6.4 kmh
Humidity 79% 41% 60%
Pressure 30.04 in1017.3 mb 30.01 in1016.3 mb -
Precipitation 0.00 in0.0 mm - -
Hour Temp Dew Point Humidity Winds Wind Gusts Pressure Precip Precip Rate Daily Precip Total
12:00 AM 47.7°F8.7°C 37.4°F3.0°C 65% 0.4 mph NE0.6 kmh NE 2.0 mph3.2 kmh 30.04 in1017.3 mb 0.00 in0.0 mm 0.00 in0.0 mm 0.00 in0.0 mm
12:05 AM 47.7°F8.7°C 37.4°F3.0°C 65% 1.0 mph NE1.6 kmh NE 2.0 mph3.2 kmh 30.04 in1017.3 mb 0.00 in0.0 mm 0.00 in0.0 mm 0.00 in0.0 mm
12:10 AM 47.5°F8.6°C 37.4°F3.0°C 65% 1.1 mph NE1.8 kmh NE 2.7 mph4.3 kmh 30.04 in1017.3 mb 0.00 in0.0 mm 0.00 in0.0 mm 0.00 in0.0 mm
12:15 AM 47.3°F8.5°C 37.4°F3.0°C 65% 1.3 mph NE2.1 kmh NE 2.7 mph4.3 kmh 30.04 in1017.3 mb 0.00 in0.0 mm 0.00 in0.0 mm 0.00 in0.0 mm
12:20 AM 47.3°F8.5°C 37.4°F3.0°C 66% 2.0 mph NE3.2 kmh NE 3.1 mph5.0 kmh 30.04 in1017.3 mb 0.00 in0.0 mm 0.00 in0.0 mm 0.00 in0.0 mm
12:25 AM 47.1°F8.4°C 37.4°F3.0°C 66% 2.0 mph NE3.2 kmh NE 3.1 mph5.0 kmh 30.04 in1017.3 mb 0.00 in0.0 mm 0.00 in0.0 mm 0.00 in0.0 mm
12:30 AM 46.9°F8.3°C 37.4°F3.0°C 66% 2.1 mph NE3.4 kmh NE 3.1 mph5.0 kmh 30.04 in1017.3 mb 0.00 in0.0 mm 0.00 in0.0 mm 0.00 in0.0 mm
12:35 AM 47.1°F8.4°C 37.4°F3.0°C 66% 1.9 mph NE3.1 kmh NE 2.9 mph4.7 kmh 30.04 in1017.3 mb 0.00 in0.0 mm 0.00 in0.0 mm 0.00 in0.0 mm
12:40 AM 46.9°F8.3°C 37.4°F3.0°C 67% 1.5 mph NNE2.4 kmh NNE 2.5 mph4.0 kmh 30.04 in1017.3 mb 0.00 in0.0 mm 0.00 in0.0 mm 0.00 in0.0 mm
12:45 AM 47.1°F8.4°C 37.4°F3.0°C 67% 1.6 mph NNE2.6 kmh NNE 3.1 mph5.0 kmh 30.04 in1017.3 mb 0.00 in0.0 mm 0.00 in0.0 mm 0.00 in0.0 mm
12:50 AM 46.9°F8.3°C 37.4°F3.0°C 67% 1.9 mph NE3.1 kmh NE 3.1 mph5.0 kmh 30.04 in1017.3 mb 0.00 in0.0 mm 0.00 in0.0 mm 0.00 in0.0 mm
12:55 AM 46.8°F8.2°C 37.4°F3.0°C 67% 2.1 mph NE3.4 kmh NE 4.0 mph6.4 kmh 30.04 in1017.3 mb 0.00 in0.0 mm 0.00 in0.0 mm 0.00 in0.0 mm
01:00 AM 46.9°F8.3°C 37.4°F3.0°C 67% 1.8 mph NE2.9 kmh NE 4.0 mph6.4 kmh 30.04 in1017.3 mb 0.00 in0.0 mm 0.00 in0.0 mm 0.00 in0.0 mm
01:05 AM 46.8°F8.2°C 37.4°F3.0°C 68% 1.7 mph NE2.7 kmh NE 4.0 mph6.4 kmh 30.04 in1017.3 mb 0.00 in0.0 mm 0.00 in0.0 mm 0.00 in0.0 mm
01:10 AM 46.9°F8.3°C 37.4°F3.0°C 68% 1.2 mph NE1.9 kmh NE 2.0 mph3.2 kmh 30.04 in1017.3 mb 0.00 in0.0 mm 0.00 in0.0 mm 0.00 in0.0 mm
01:15 AM 46.8°F8.2°C 37.4°F3.0°C 68% 1.1 mph NE1.8 kmh NE 2.0 mph3.2 kmh 30.04 in1017.3 mb 0.00 in0.0 mm 0.00 in0.0 mm 0.00 in0.0 mm
01:20 AM 46.8°F8.2°C 37.4°F3.0°C 68% 1.1 mph NE1.8 kmh NE 2.0 mph3.2 kmh 30.04 in1017.3 mb 0.00 in0.0 mm 0.00 in0.0 mm 0.00 in0.0 mm
01:25 AM 46.8°F8.2°C 37.4°F3.0°C 68% 1.6 mph NNE2.6 kmh NNE 2.9 mph4.7 kmh 30.04 in1017.3 mb 0.00 in0.0 mm 0.00 in0.0 mm 0.00 in0.0 mm
01:30 AM 46.6°F8.1°C 37.4°F3.0°C 68% 2.3 mph NE3.7 kmh NE 2.9 mph4.7 kmh 30.04 in1017.3 mb 0.00 in0.0 mm 0.00 in0.0 mm 0.00 in0.0 mm
01:35 AM 46.8°F8.2°C 37.4°F3.0°C 69% 1.7 mph NE2.7 kmh NE 2.9 mph4.7 kmh 30.04 in1017.3 mb 0.00 in0.0 mm 0.00 in0.0 mm 0.00 in0.0 mm
01:40 AM 46.8°F8.2°C 37.4°F3.0°C 69% 1.3 mph NE2.1 kmh NE 2.5 mph4.0 kmh 30.04 in1017.3 mb 0.00 in0.0 mm 0.00 in0.0 mm 0.00 in0.0 mm
01:45 AM 46.8°F8.2°C 37.4°F3.0°C 69% 1.9 mph NE3.1 kmh NE 3.1 mph5.0 kmh 30.04 in1017.3 mb 0.00 in0.0 mm 0.00 in0.0 mm 0.00 in0.0 mm
01:50 AM 46.8°F8.2°C 37.4°F3.0°C 69% 2.2 mph NE3.5 kmh NE 3.1 mph5.0 kmh 30.04 in1017.3 mb 0.00 in0.0 mm 0.00 in0.0 mm 0.00 in0.0 mm
01:55 AM 46.8°F8.2°C 37.4°F3.0°C 69% 2.0 mph NE3.2 kmh NE 2.9 mph4.7 kmh 30.04 in1017.3 mb 0.00 in0.0 mm 0.00 in0.0 mm 0.00 in0.0 mm
02:00 AM 46.8°F8.2°C 37.4°F3.0°C 70% 1.9 mph NE3.1 kmh NE 3.1 mph5.0 kmh 30.04 in1017.3 mb 0.00 in0.0 mm 0.00 in0.0 mm 0.00 in0.0 mm
02:05 AM 46.8°F8.2°C 37.4°F3.0°C 70% 1.7 mph NE2.7 kmh NE 3.1 mph5.0 kmh 30.01 in1016.3 mb 0.00 in0.0 mm 0.00 in0.0 mm 0.00 in0.0 mm
02:10 AM 46.6°F8.1°C 37.4°F3.0°C 70% 1.9 mph NE3.1 kmh NE 2.9 mph4.7 kmh 30.01 in1016.3 mb 0.00 in0.0 mm 0.00 in0.0 mm 0.00 in0.0 mm
02:15 AM 46.4°F8.0°C 37.4°F3.0°C 70% 2.1 mph NE3.4 kmh NE 2.9 mph4.7 kmh 30.01 in1016.3 mb 0.00 in0.0 mm 0.00 in0.0 mm 0.00 in0.0 mm
02:20 AM 46.4°F8.0°C 37.4°F3.0°C 70% 1.6 mph NE2.6 kmh NE 2.9 mph4.7 kmh 30.04 in1017.3 mb 0.00 in0.0 mm 0.00 in0.0 mm 0.00 in0.0 mm
02:25 AM 46.2°F7.9°C 37.4°F3.0°C 70% 1.7 mph NE2.7 kmh NE 2.7 mph4.3 kmh 30.04 in1017.3 mb 0.00 in0.0 mm 0.00 in0.0 mm 0.00 in0.0 mm
02:30 AM 46.4°F8.0°C 37.4°F3.0°C 70% 2.0 mph NE3.2 kmh NE 2.7 mph4.3 kmh 30.04 in1017.3 mb 0.00 in0.0 mm 0.00 in0.0 mm 0.00 in0.0 mm
02:35 AM 46.4°F8.0°C 37.4°F3.0°C 70% 1.8 mph NE2.9 kmh NE 2.2 mph3.5 kmh 30.01 in1016.3 mb 0.00 in0.0 mm 0.00 in0.0 mm 0.00 in0.0 mm
02:40 AM 46.2°F7.9°C 37.4°F3.0°C 70% 1.9 mph NE3.1 kmh NE 3.1 mph5.0 kmh 30.01 in1016.3 mb 0.00 in0.0 mm 0.00 in0.0 mm 0.00 in0.0 mm
02:45 AM 46.2°F7.9°C 37.4°F3.0°C 70% 2.1 mph NE3.4 kmh NE 3.1 mph5.0 kmh 30.01 in1016.3 mb 0.00 in0.0 mm 0.00 in0.0 mm 0.00 in0.0 mm
02:50 AM 46.2°F7.9°C 37.4°F3.0°C 70% 1.9 mph NE3.1 kmh NE 3.1 mph5.0 kmh 30.01 in1016.3 mb 0.00 in0.0 mm 0.00 in0.0 mm 0.00 in0.0 mm
02:55 AM 46.0°F7.8°C 37.4°F3.0°C 70% 1.6 mph NE2.6 kmh NE 2.5 mph4.0 kmh 30.01 in1016.3 mb 0.00 in0.0 mm 0.00 in0.0 mm 0.00 in0.0 mm
03:00 AM 46.0°F7.8°C 37.4°F3.0°C 70% 1.8 mph NE2.9 kmh NE 3.1 mph5.0 kmh 30.01 in1016.3 mb 0.00 in0.0 mm 0.00 in0.0 mm 0.00 in0.0 mm
03:05 AM 46.0°F7.8°C 37.4°F3.0°C 71% 2.0 mph NE3.2 kmh NE 3.1 mph5.0 kmh 30.01 in1016.3 mb 0.00 in0.0 mm 0.00 in0.0 mm 0.00 in0.0 mm
03:10 AM 46.0°F7.8°C 37.4°F3.0°C 71% 1.4 mph NE2.3 kmh NE 3.1 mph5.0 kmh 30.01 in1016.3 mb 0.00 in0.0 mm 0.00 in0.0 mm 0.00 in0.0 mm
03:15 AM 45.9°F7.7°C 37.4°F3.0°C 71% 1.0 mph NE1.6 kmh NE 2.0 mph3.2 kmh 30.01 in1016.3 mb 0.00 in0.0 mm 0.00 in0.0 mm 0.00 in0.0 mm
03:20 AM 45.9°F7.7°C 37.4°F3.0°C 71% 1.5 mph NE2.4 kmh NE 2.5 mph4.0 kmh 30.01 in1016.3 mb 0.00 in0.0 mm 0.00 in0.0 mm 0.00 in0.0 mm
03:25 AM 45.7°F7.6°C 37.4°F3.0°C 71% 1.4 mph NE2.3 kmh NE 2.5 mph4.0 kmh 30.01 in1016.3 mb 0.00 in0.0 mm 0.00 in0.0 mm 0.00 in0.0 mm
03:30 AM 45.7°F7.6°C 37.4°F3.0°C 71% 1.2 mph NE1.9 kmh NE 2.0 mph3.2 kmh 30.01 in1016.3 mb 0.00 in0.0 mm 0.00 in0.0 mm 0.00 in0.0 mm
03:35 AM 45.5°F7.5°C 37.4°F3.0°C 71% 1.8 mph NE2.9 kmh NE 2.7 mph4.3 kmh 30.01 in1016.3 mb 0.00 in0.0 mm 0.00 in0.0 mm 0.00 in0.0 mm
03:40 AM 45.7°F7.6°C 37.4°F3.0°C 72% 1.9 mph NE3.1 kmh NE 2.7 mph4.3 kmh 30.01 in1016.3 mb 0.00 in0.0 mm 0.00 in0.0 mm 0.00 in0.0 mm
03:45 AM 45.5°F7.5°C 37.4°F3.0°C 72% 1.5 mph NE2.4 kmh NE 2.7 mph4.3 kmh 30.01 in1016.3 mb 0.00 in0.0 mm 0.00 in0.0 mm 0.00 in0.0 mm
03:50 AM 45.3°F7.4°C 37.4°F3.0°C 72% 0.8 mph NE1.3 kmh NE 2.2 mph3.5 kmh 30.01 in1016.3 mb 0.00 in0.0 mm 0.00 in0.0 mm 0.00 in0.0 mm
03:55 AM 45.1°F7.3°C 37.4°F3.0°C 71% 0.4 mph NE0.6 kmh NE 1.1 mph1.8 kmh 30.01 in1016.3 mb 0.00 in0.0 mm 0.00 in0.0 mm 0.00 in0.0 mm
04:00 AM 45.1°F7.3°C 37.4°F3.0°C 71% 0.8 mph NE1.3 kmh NE 1.6 mph2.6 kmh 30.01 in1016.3 mb 0.00 in0.0 mm 0.00 in0.0 mm 0.00 in0.0 mm
04:05 AM 45.1°F7.3°C 37.4°F3.0°C 72% 1.2 mph NE1.9 kmh NE 2.0 mph3.2 kmh 30.01 in1016.3 mb 0.00 in0.0 mm 0.00 in0.0 mm 0.00 in0.0 mm
04:10 AM 45.3°F7.4°C 37.4°F3.0°C 72% 1.4 mph NE2.3 kmh NE 2.5 mph4.0 kmh 30.01 in1016.3 mb 0.00 in0.0 mm 0.00 in0.0 mm 0.00 in0.0 mm
04:15 AM 45.1°F7.3°C 37.4°F3.0°C 72% 1.1 mph NE1.8 kmh NE 2.5 mph4.0 kmh 30.01 in1016.3 mb 0.00 in0.0 mm 0.00 in0.0 mm 0.00 in0.0 mm
04:20 AM 45.1°F7.3°C 37.4°F3.0°C 72% 0.3 mph NE0.5 kmh NE 1.3 mph2.1 kmh 30.01 in1016.3 mb 0.00 in0.0 mm 0.00 in0.0 mm 0.00 in0.0 mm
04:25 AM 45.1°F7.3°C 37.4°F3.0°C 72% 0.5 mph N0.8 kmh N 1.1 mph1.8 kmh 30.01 in1016.3 mb 0.00 in0.0 mm 0.00 in0.0 mm 0.00 in0.0 mm
04:30 AM 45.0°F7.2°C 37.4°F3.0°C 72% 0.9 mph NNE1.4 kmh NNE 1.3 mph2.1 kmh 30.01 in1016.3 mb 0.00 in0.0 mm 0.00 in0.0 mm 0.00 in0.0 mm
04:35 AM 45.0°F7.2°C 37.4°F3.0°C 72% 1.2 mph NE1.9 kmh NE 2.2 mph3.5 kmh 30.01 in1016.3 mb 0.00 in0.0 mm 0.00 in0.0 mm 0.00 in0.0 mm
04:40 AM 45.0°F7.2°C 37.4°F3.0°C 72% 1.3 mph NE2.1 kmh NE 2.2 mph3.5 kmh 30.01 in1016.3 mb 0.00 in0.0 mm 0.00 in0.0 mm 0.00 in0.0 mm
04:45 AM 44.8°F7.1°C 37.4°F3.0°C 72% 1.2 mph NNE1.9 kmh NNE 2.2 mph3.5 kmh 30.01 in1016.3 mb 0.00 in0.0 mm 0.00 in0.0 mm 0.00 in0.0 mm
04:50 AM 44.8°F7.1°C 37.4°F3.0°C 72% 1.8 mph NE2.9 kmh NE 2.9 mph4.7 kmh 30.01 in1016.3 mb 0.00 in0.0 mm 0.00 in0.0 mm 0.00 in0.0 mm
04:55 AM 44.8°F7.1°C 37.4°F3.0°C 72% 2.0 mph NE3.2 kmh NE 2.9 mph4.7 kmh 30.01 in1016.3 mb 0.00 in0.0 mm 0.00 in0.0 mm 0.00 in0.0 mm
05:00 AM 44.6°F7.0°C 37.4°F3.0°C 72% 1.0 mph NE1.6 kmh NE 2.9 mph4.7 kmh 30.01 in1016.3 mb 0.00 in0.0 mm 0.00 in0.0 mm 0.00 in0.0 mm
05:05 AM 44.6°F7.0°C 37.4°F3.0°C 72% 0.4 mph N0.6 kmh N 1.3 mph2.1 kmh 30.01 in1016.3 mb 0.00 in0.0 mm 0.00 in0.0 mm 0.00 in0.0 mm
05:10 AM 44.6°F7.0°C 37.4°F3.0°C 73% 0.5 mph NNE0.8 kmh NNE 1.3 mph2.1 kmh 30.01 in1016.3 mb 0.00 in0.0 mm 0.00 in0.0 mm 0.00 in0.0 mm
05:15 AM 44.6°F7.0°C 37.4°F3.0°C 73% 1.1 mph NE1.8 kmh NE 2.2 mph3.5 kmh 30.01 in1016.3 mb 0.00 in0.0 mm 0.00 in0.0 mm 0.00 in0.0 mm
05:20 AM 44.8°F7.1°C 37.4°F3.0°C 73% 1.3 mph NE2.1 kmh NE 2.5 mph4.0 kmh 30.01 in1016.3 mb 0.00 in0.0 mm 0.00 in0.0 mm 0.00 in0.0 mm
05:25 AM 44.8°F7.1°C 37.4°F3.0°C 73% 1.3 mph NE2.1 kmh NE 2.5 mph4.0 kmh 30.01 in1016.3 mb 0.00 in0.0 mm 0.00 in0.0 mm 0.00 in0.0 mm
05:30 AM 44.6°F7.0°C 37.4°F3.0°C 73% 1.4 mph NE2.3 kmh NE 2.5 mph4.0 kmh 30.01 in1016.3 mb 0.00 in0.0 mm 0.00 in0.0 mm 0.00 in0.0 mm
05:35 AM 44.8°F7.1°C 37.4°F3.0°C 73% 1.0 mph NE1.6 kmh NE 1.3 mph2.1 kmh 30.01 in1016.3 mb 0.00 in0.0 mm 0.00 in0.0 mm 0.00 in0.0 mm
05:40 AM 44.8°F7.1°C 37.4°F3.0°C 73% 1.1 mph NE1.8 kmh NE 1.6 mph2.6 kmh 30.01 in1016.3 mb 0.00 in0.0 mm 0.00 in0.0 mm 0.00 in0.0 mm
05:45 AM 44.8°F7.1°C 37.4°F3.0°C 73% 1.1 mph NE1.8 kmh NE 1.6 mph2.6 kmh 30.01 in1016.3 mb 0.00 in0.0 mm 0.00 in0.0 mm 0.00 in0.0 mm
05:50 AM 44.8°F7.1°C 37.4°F3.0°C 73% 1.4 mph NE2.3 kmh NE 2.7 mph4.3 kmh 30.04 in1017.3 mb 0.00 in0.0 mm 0.00 in0.0 mm 0.00 in0.0 mm
05:55 AM 45.0°F7.2°C 37.4°F3.0°C 73% 1.3 mph NE2.1 kmh NE 2.7 mph4.3 kmh 30.04 in1017.3 mb 0.00 in0.0 mm 0.00 in0.0 mm 0.00 in0.0 mm
06:00 AM 45.0°F7.2°C 37.4°F3.0°C 73% 1.4 mph NE2.3 kmh NE 2.7 mph4.3 kmh 30.04 in1017.3 mb 0.00 in0.0 mm 0.00 in0.0 mm 0.00 in0.0 mm
06:05 AM 45.1°F7.3°C 37.4°F3.0°C 74% 1.4 mph NE2.3 kmh NE 2.7 mph4.3 kmh 30.04 in1017.3 mb 0.00 in0.0 mm 0.00 in0.0 mm 0.00 in0.0 mm
06:10 AM 45.3°F7.4°C 37.4°F3.0°C 74% 1.1 mph NE1.8 kmh NE 1.6 mph2.6 kmh 30.04 in1017.3 mb 0.00 in0.0 mm 0.00 in0.0 mm 0.00 in0.0 mm
06:15 AM 45.7°F7.6°C 37.4°F3.0°C 74% 1.0 mph NE1.6 kmh NE 1.6 mph2.6 kmh 30.04 in1017.3 mb 0.00 in0.0 mm 0.00 in0.0 mm 0.00 in0.0 mm
06:20 AM 45.9°F7.7°C 37.4°F3.0°C 74% 1.0 mph NE1.6 kmh NE 1.6 mph2.6 kmh 30.04 in1017.3 mb 0.00 in0.0 mm 0.00 in0.0 mm 0.00 in0.0 mm
06:25 AM 45.9°F7.7°C 39.2°F4.0°C 75% 0.9 mph NNE1.4 kmh NNE 1.6 mph2.6 kmh 30.04 in1017.3 mb 0.00 in0.0 mm 0.00 in0.0 mm 0.00 in0.0 mm
06:30 AM 46.2°F7.9°C 39.2°F4.0°C 75% 0.9 mph NE1.4 kmh NE 1.6 mph2.6 kmh 30.04 in1017.3 mb 0.00 in0.0 mm 0.00 in0.0 mm 0.00 in0.0 mm
06:35 AM 46.4°F8.0°C 39.2°F4.0°C 75% 0.7 mph NE1.1 kmh NE 1.6 mph2.6 kmh 30.04 in1017.3 mb 0.00 in0.0 mm 0.00 in0.0 mm 0.00 in0.0 mm
06:40 AM 46.6°F8.1°C 39.2°F4.0°C 76% 0.1 mph NE0.2 kmh NE 1.1 mph1.8 kmh 30.04 in1017.3 mb 0.00 in0.0 mm 0.00 in0.0 mm 0.00 in0.0 mm
06:45 AM 47.1°F8.4°C 41.0°F5.0°C 76% 0.8 mph NE1.3 kmh NE 2.7 mph4.3 kmh 30.04 in1017.3 mb 0.00 in0.0 mm 0.00 in0.0 mm 0.00 in0.0 mm
06:50 AM 47.3°F8.5°C 41.0°F5.0°C 76% 1.4 mph NE2.3 kmh NE 2.7 mph4.3 kmh 30.04 in1017.3 mb 0.00 in0.0 mm 0.00 in0.0 mm 0.00 in0.0 mm
06:55 AM 47.7°F8.7°C 41.0°F5.0°C 76% 0.9 mph NE1.4 kmh NE 1.6 mph2.6 kmh 30.04 in1017.3 mb 0.00 in0.0 mm 0.00 in0.0 mm 0.00 in0.0 mm
07:00 AM 48.2°F9.0°C 42.8°F6.0°C 77% 0.9 mph NE1.4 kmh NE 1.6 mph2.6 kmh 30.04 in1017.3 mb 0.00 in0.0 mm 0.00 in0.0 mm 0.00 in0.0 mm
07:05 AM 48.6°F9.2°C 42.8°F6.0°C 77% 1.1 mph NNE1.8 kmh NNE 1.6 mph2.6 kmh 30.04 in1017.3 mb 0.00 in0.0 mm 0.00 in0.0 mm 0.00 in0.0 mm
07:10 AM 48.9°F9.4°C 42.8°F6.0°C 77% 1.0 mph NNE1.6 kmh NNE 2.5 mph4.0 kmh 30.04 in1017.3 mb 0.00 in0.0 mm 0.00 in0.0 mm 0.00 in0.0 mm
07:15 AM 49.6°F9.8°C 42.8°F6.0°C 78% 1.6 mph ENE2.6 kmh ENE 2.7 mph4.3 kmh 30.04 in1017.3 mb 0.00 in0.0 mm 0.00 in0.0 mm 0.00 in0.0 mm
07:20 AM 50.5°F10.3°C 44.6°F7.0°C 78% 1.3 mph ENE2.1 kmh ENE 2.7 mph4.3 kmh 30.04 in1017.3 mb 0.00 in0.0 mm 0.00 in0.0 mm 0.00 in0.0 mm
07:25 AM 51.4°F10.8°C 44.6°F7.0°C 79% 0.4 mph NNE0.6 kmh NNE 1.1 mph1.8 kmh 30.04 in1017.3 mb 0.00 in0.0 mm 0.00 in0.0 mm 0.00 in0.0 mm
07:30 AM 52.3°F11.3°C 46.4°F8.0°C 79% 0.2 mph NNW0.3 kmh NNW 0.9 mph1.4 kmh 30.04 in1017.3 mb 0.00 in0.0 mm 0.00 in0.0 mm 0.00 in0.0 mm
07:35 AM 52.7°F11.5°C 46.4°F8.0°C 78% 0.3 mph WNW0.5 kmh WNW 1.3 mph2.1 kmh 30.04 in1017.3 mb 0.00 in0.0 mm 0.00 in0.0 mm 0.00 in0.0 mm
07:40 AM 53.4°F11.9°C 46.4°F8.0°C 77% 0.4 mph W0.6 kmh W 1.3 mph2.1 kmh 30.04 in1017.3 mb 0.00 in0.0 mm 0.00 in0.0 mm 0.00 in0.0 mm
07:45 AM 53.4°F11.9°C 46.4°F8.0°C 77% 0.5 mph SW0.8 kmh SW 1.6 mph2.6 kmh 30.04 in1017.3 mb 0.00 in0.0 mm 0.00 in0.0 mm 0.00 in0.0 mm
07:50 AM 54.0°F12.2°C 48.2°F9.0°C 77% 0.7 mph SW1.1 kmh SW 2.0 mph3.2 kmh 30.04 in1017.3 mb 0.00 in0.0 mm 0.00 in0.0 mm 0.00 in0.0 mm
07:55 AM 54.1°F12.3°C 48.2°F9.0°C 76% 0.3 mph WSW0.5 kmh WSW 2.0 mph3.2 kmh 30.04 in1017.3 mb 0.00 in0.0 mm 0.00 in0.0 mm 0.00 in0.0 mm
08:00 AM 54.7°F12.6°C 48.2°F9.0°C 76% Calm Calm -- 30.04 in1017.3 mb 0.00 in0.0 mm 0.00 in0.0 mm 0.00 in0.0 mm
08:05 AM 55.0°F12.8°C 48.2°F9.0°C 76% 0.5 mph SW0.8 kmh SW 2.5 mph4.0 kmh 30.04 in1017.3 mb 0.00 in0.0 mm 0.00 in0.0 mm 0.00 in0.0 mm
08:10 AM 55.4°F13.0°C 48.2°F9.0°C 76% 0.5 mph SW0.8 kmh SW 2.5 mph4.0 kmh 30.04 in1017.3 mb 0.00 in0.0 mm 0.00 in0.0 mm 0.00 in0.0 mm
08:15 AM 55.9°F13.3°C 48.2°F9.0°C 75% 0.6 mph SW1.0 kmh SW 2.2 mph3.5 kmh 30.04 in1017.3 mb 0.00 in0.0 mm 0.00 in0.0 mm 0.00 in0.0 mm
08:20 AM 56.5°F13.6°C 50.0°F10.0°C 75% 1.5 mph WSW2.4 kmh WSW 4.0 mph6.4 kmh 30.04 in1017.3 mb 0.00 in0.0 mm 0.00 in0.0 mm 0.00 in0.0 mm
08:25 AM 57.2°F14.0°C 50.0°F10.0°C 75% 2.1 mph SW3.4 kmh SW 4.0 mph6.4 kmh 30.04 in1017.3 mb 0.00 in0.0 mm 0.00 in0.0 mm 0.00 in0.0 mm
08:30 AM 57.4°F14.1°C 50.0°F10.0°C 74% 2.1 mph SW3.4 kmh SW 3.4 mph5.5 kmh 30.04 in1017.3 mb 0.00 in0.0 mm 0.00 in0.0 mm 0.00 in0.0 mm
08:35 AM 57.7°F14.3°C 50.0°F10.0°C 74% 2.1 mph SW3.4 kmh SW 3.4 mph5.5 kmh 30.04 in1017.3 mb 0.00 in0.0 mm 0.00 in0.0 mm 0.00 in0.0 mm
08:40 AM 58.5°F14.7°C 50.0°F10.0°C 74% 1.9 mph SW3.1 kmh SW 3.1 mph5.0 kmh 30.04 in1017.3 mb 0.00 in0.0 mm 0.00 in0.0 mm 0.00 in0.0 mm
08:45 AM 59.2°F15.1°C 50.0°F10.0°C 73% 2.0 mph SSW3.2 kmh SSW 3.1 mph5.0 kmh 30.04 in1017.3 mb 0.00 in0.0 mm 0.00 in0.0 mm 0.00 in0.0 mm
08:50 AM 59.7°F15.4°C 51.8°F11.0°C 73% 1.9 mph SSW3.1 kmh SSW 3.1 mph5.0 kmh 30.04 in1017.3 mb 0.00 in0.0 mm 0.00 in0.0 mm 0.00 in0.0 mm
08:55 AM 60.4°F15.8°C 51.8°F11.0°C 72% 1.7 mph SSW2.7 kmh SSW 3.8 mph6.1 kmh 30.04 in1017.3 mb 0.00 in0.0 mm 0.00 in0.0 mm 0.00 in0.0 mm
09:00 AM 61.3°F16.3°C 53.6°F12.0°C 72% 1.6 mph S2.6 kmh S 3.8 mph6.1 kmh 30.04 in1017.3 mb 0.00 in0.0 mm 0.00 in0.0 mm 0.00 in0.0 mm
09:05 AM 61.7°F16.5°C 53.6°F12.0°C 71% 1.2 mph WSW1.9 kmh WSW 3.4 mph5.5 kmh 30.04 in1017.3 mb 0.00 in0.0 mm 0.00 in0.0 mm 0.00 in0.0 mm
09:10 AM 62.4°F16.9°C 53.6°F12.0°C 71% 1.7 mph WSW2.7 kmh WSW 3.4 mph5.5 kmh 30.04 in1017.3 mb 0.00 in0.0 mm 0.00 in0.0 mm 0.00 in0.0 mm
09:15 AM 63.1°F17.3°C 53.6°F12.0°C 69% 1.9 mph WSW3.1 kmh WSW 3.4 mph5.5 kmh 30.04 in1017.3 mb 0.00 in0.0 mm 0.00 in0.0 mm 0.00 in0.0 mm
09:20 AM 63.9°F17.7°C 53.6°F12.0°C 68% 1.3 mph S2.1 kmh S 2.7 mph4.3 kmh 30.04 in1017.3 mb 0.00 in0.0 mm 0.00 in0.0 mm 0.00 in0.0 mm
09:25 AM 64.9°F18.3°C 53.6°F12.0°C 67% 1.4 mph S2.3 kmh S 3.1 mph5.0 kmh 30.04 in1017.3 mb 0.00 in0.0 mm 0.00 in0.0 mm 0.00 in0.0 mm
09:30 AM 65.7°F18.7°C 53.6°F12.0°C 66% 1.7 mph SSE2.7 kmh SSE 4.0 mph6.4 kmh 30.04 in1017.3 mb 0.00 in0.0 mm 0.00 in0.0 mm 0.00 in0.0 mm
09:35 AM 66.2°F19.0°C 55.4°F13.0°C 65% 1.8 mph S2.9 kmh S 4.0 mph6.4 kmh 30.04 in1017.3 mb 0.00 in0.0 mm 0.00 in0.0 mm 0.00 in0.0 mm
09:40 AM 66.9°F19.4°C 55.4°F13.0°C 64% 1.4 mph S2.3 kmh S 2.7 mph4.3 kmh 30.04 in1017.3 mb 0.00 in0.0 mm 0.00 in0.0 mm 0.00 in0.0 mm
09:45 AM 67.6°F19.8°C 55.4°F13.0°C 63% 1.6 mph S2.6 kmh S 3.6 mph5.8 kmh 30.04 in1017.3 mb 0.00 in0.0 mm 0.00 in0.0 mm 0.00 in0.0 mm
09:50 AM 68.9°F20.5°C 55.4°F13.0°C 62% 2.1 mph S3.4 kmh S 3.6 mph5.8 kmh 30.04 in1017.3 mb 0.00 in0.0 mm 0.00 in0.0 mm 0.00 in0.0 mm
09:55 AM 69.3°F20.7°C 55.4°F13.0°C 61% 2.2 mph S3.5 kmh S 3.4 mph5.5 kmh 30.04 in1017.3 mb 0.00 in0.0 mm 0.00 in0.0 mm 0.00 in0.0 mm
10:00 AM 70.0°F21.1°C 55.4°F13.0°C 61% 2.5 mph SSW4.0 kmh SSW 4.0 mph6.4 kmh 30.04 in1017.3 mb 0.00 in0.0 mm 0.00 in0.0 mm 0.00 in0.0 mm
10:05 AM 70.7°F21.5°C 57.2°F14.0°C 61% 2.2 mph SW3.5 kmh SW 4.0 mph6.4 kmh 30.04 in1017.3 mb 0.00 in0.0 mm 0.00 in0.0 mm 0.00 in0.0 mm
10:10 AM 71.6°F22.0°C 57.2°F14.0°C 59% 2.7 mph SW4.3 kmh SW 5.4 mph8.7 kmh 30.04 in1017.3 mb 0.00 in0.0 mm 0.00 in0.0 mm 0.00 in0.0 mm
10:15 AM 71.4°F21.9°C 57.2°F14.0°C 59% 3.8 mph SW6.1 kmh SW 5.8 mph9.3 kmh 30.04 in1017.3 mb 0.00 in0.0 mm 0.00 in0.0 mm 0.00 in0.0 mm
10:20 AM 71.4°F21.9°C 55.4°F13.0°C 58% 3.5 mph S5.6 kmh S 5.8 mph9.3 kmh 30.04 in1017.3 mb 0.00 in0.0 mm 0.00 in0.0 mm 0.00 in0.0 mm
10:25 AM 71.4°F21.9°C 55.4°F13.0°C 58% 3.6 mph S5.8 kmh S 6.3 mph10.1 kmh 30.04 in1017.3 mb 0.00 in0.0 mm 0.00 in0.0 mm 0.00 in0.0 mm
10:30 AM 70.7°F21.5°C 55.4°F13.0°C 58% 4.6 mph S7.4 kmh S 8.5 mph13.7 kmh 30.04 in1017.3 mb 0.00 in0.0 mm 0.00 in0.0 mm 0.00 in0.0 mm
10:35 AM 70.9°F21.6°C 55.4°F13.0°C 57% 4.5 mph S7.2 kmh S 8.5 mph13.7 kmh 30.04 in1017.3 mb 0.00 in0.0 mm 0.00 in0.0 mm 0.00 in0.0 mm
10:40 AM 71.4°F21.9°C 55.4°F13.0°C 57% 4.0 mph SSW6.4 kmh SSW 9.8 mph15.8 kmh 30.04 in1017.3 mb 0.00 in0.0 mm 0.00 in0.0 mm 0.00 in0.0 mm
10:45 AM 71.2°F21.8°C 55.4°F13.0°C 56% 5.0 mph SSW8.0 kmh SSW 10.1 mph16.3 kmh 30.04 in1017.3 mb 0.00 in0.0 mm 0.00 in0.0 mm 0.00 in0.0 mm
10:50 AM 71.2°F21.8°C 55.4°F13.0°C 56% 4.9 mph SSW7.9 kmh SSW 10.1 mph16.3 kmh 30.04 in1017.3 mb 0.00 in0.0 mm 0.00 in0.0 mm 0.00 in0.0 mm
10:55 AM 71.1°F21.7°C 55.4°F13.0°C 56% 4.3 mph S6.9 kmh S 7.8 mph12.6 kmh 30.04 in1017.3 mb 0.00 in0.0 mm 0.00 in0.0 mm 0.00 in0.0 mm
11:00 AM 71.2°F21.8°C 53.6°F12.0°C 55% 3.9 mph SSW6.3 kmh SSW 5.6 mph9.0 kmh 30.04 in1017.3 mb 0.00 in0.0 mm 0.00 in0.0 mm 0.00 in0.0 mm
11:05 AM 71.2°F21.8°C 53.6°F12.0°C 55% 4.2 mph SSW6.8 kmh SSW 5.8 mph9.3 kmh 30.04 in1017.3 mb 0.00 in0.0 mm 0.00 in0.0 mm 0.00 in0.0 mm
11:10 AM 71.1°F21.7°C 53.6°F12.0°C 55% 4.6 mph S7.4 kmh S 6.0 mph9.7 kmh 30.04 in1017.3 mb 0.00 in0.0 mm 0.00 in0.0 mm 0.00 in0.0 mm
11:15 AM 71.2°F21.8°C 53.6°F12.0°C 55% 4.4 mph SSW7.1 kmh SSW 6.0 mph9.7 kmh 30.04 in1017.3 mb 0.00 in0.0 mm 0.00 in0.0 mm 0.00 in0.0 mm
11:20 AM 72.1°F22.3°C 55.4°F13.0°C 54% 4.4 mph SSW7.1 kmh SSW 6.0 mph9.7 kmh 30.04 in1017.3 mb 0.00 in0.0 mm 0.00 in0.0 mm 0.00 in0.0 mm
11:25 AM 72.9°F22.7°C 55.4°F13.0°C 54% 4.1 mph SSW6.6 kmh SSW 6.0 mph9.7 kmh 30.04 in1017.3 mb 0.00 in0.0 mm 0.00 in0.0 mm 0.00 in0.0 mm
11:30 AM 73.4°F23.0°C 55.4°F13.0°C 52% 3.3 mph SSW5.3 kmh SSW 5.4 mph8.7 kmh 30.04 in1017.3 mb 0.00 in0.0 mm 0.00 in0.0 mm 0.00 in0.0 mm
11:35 AM 73.8°F23.2°C 55.4°F13.0°C 52% 3.4 mph SSW5.5 kmh SSW 6.0 mph9.7 kmh 30.04 in1017.3 mb 0.00 in0.0 mm 0.00 in0.0 mm 0.00 in0.0 mm
11:40 AM 73.9°F23.3°C 55.4°F13.0°C 51% 4.5 mph SSW7.2 kmh SSW 6.5 mph10.5 kmh 30.04 in1017.3 mb 0.00 in0.0 mm 0.00 in0.0 mm 0.00 in0.0 mm
11:45 AM 74.8°F23.8°C 55.4°F13.0°C 51% 4.2 mph SSW6.8 kmh SSW 6.5 mph10.5 kmh 30.04 in1017.3 mb 0.00 in0.0 mm 0.00 in0.0 mm 0.00 in0.0 mm
11:50 AM 74.5°F23.6°C 55.4°F13.0°C 51% 3.1 mph S5.0 kmh S 4.9 mph7.9 kmh 30.04 in1017.3 mb 0.00 in0.0 mm 0.00 in0.0 mm 0.00 in0.0 mm
11:55 AM 75.6°F24.2°C 57.2°F14.0°C 51% 3.4 mph S5.5 kmh S 8.5 mph13.7 kmh 30.04 in1017.3 mb 0.00 in0.0 mm 0.00 in0.0 mm 0.00 in0.0 mm
12:00 PM 75.2°F24.0°C 55.4°F13.0°C 50% 4.3 mph S6.9 kmh S 8.5 mph13.7 kmh 30.04 in1017.3 mb 0.00 in0.0 mm 0.00 in0.0 mm 0.00 in0.0 mm
12:05 PM 75.7°F24.3°C 55.4°F13.0°C 50% 4.2 mph S6.8 kmh S 6.3 mph10.1 kmh 30.04 in1017.3 mb 0.00 in0.0 mm 0.00 in0.0 mm 0.00 in0.0 mm
12:10 PM 76.3°F24.6°C 57.2°F14.0°C 50% 3.3 mph S5.3 kmh S 5.8 mph9.3 kmh 30.04 in1017.3 mb 0.00 in0.0 mm 0.00 in0.0 mm 0.00 in0.0 mm
12:15 PM 75.7°F24.3°C 55.4°F13.0°C 49% 3.5 mph S5.6 kmh S 7.2 mph11.6 kmh 30.04 in1017.3 mb 0.00 in0.0 mm 0.00 in0.0 mm 0.00 in0.0 mm
12:20 PM 76.3°F24.6°C 55.4°F13.0°C 49% 4.1 mph S6.6 kmh S 7.2 mph11.6 kmh 30.04 in1017.3 mb 0.00 in0.0 mm 0.00 in0.0 mm 0.00 in0.0 mm
12:25 PM 76.3°F24.6°C 55.4°F13.0°C 49% 4.2 mph SSW6.8 kmh SSW 6.3 mph10.1 kmh 30.04 in1017.3 mb 0.00 in0.0 mm 0.00 in0.0 mm 0.00 in0.0 mm
12:30 PM 76.6°F24.8°C 55.4°F13.0°C 49% 4.2 mph S6.8 kmh S 7.6 mph12.2 kmh 30.04 in1017.3 mb 0.00 in0.0 mm 0.00 in0.0 mm 0.00 in0.0 mm
12:35 PM 76.5°F24.7°C 55.4°F13.0°C 48% 4.6 mph S7.4 kmh S 9.6 mph15.4 kmh 30.04 in1017.3 mb 0.00 in0.0 mm 0.00 in0.0 mm 0.00 in0.0 mm
12:40 PM 76.8°F24.9°C 55.4°F13.0°C 48% 4.7 mph S7.6 kmh S 9.6 mph15.4 kmh 30.04 in1017.3 mb 0.00 in0.0 mm 0.00 in0.0 mm 0.00 in0.0 mm
12:45 PM 77.5°F25.3°C 55.4°F13.0°C 47% 4.6 mph S7.4 kmh S 9.6 mph15.4 kmh 30.04 in1017.3 mb 0.00 in0.0 mm 0.00 in0.0 mm 0.00 in0.0 mm
12:50 PM 78.1°F25.6°C 57.2°F14.0°C 47% 4.7 mph SW7.6 kmh SW 7.6 mph12.2 kmh 30.04 in1017.3 mb 0.00 in0.0 mm 0.00 in0.0 mm 0.00 in0.0 mm
12:55 PM 77.9°F25.5°C 55.4°F13.0°C 46% 4.7 mph SW7.6 kmh SW 7.6 mph12.2 kmh 30.04 in1017.3 mb 0.00 in0.0 mm 0.00 in0.0 mm 0.00 in0.0 mm
01:00 PM 77.4°F25.2°C 55.4°F13.0°C 46% 5.3 mph SSW8.5 kmh SSW 7.6 mph12.2 kmh 30.04 in1017.3 mb 0.00 in0.0 mm 0.00 in0.0 mm 0.00 in0.0 mm
01:05 PM 78.4°F25.8°C 55.4°F13.0°C 46% 5.3 mph S8.5 kmh S 7.4 mph11.9 kmh 30.04 in1017.3 mb 0.00 in0.0 mm 0.00 in0.0 mm 0.00 in0.0 mm
01:10 PM 77.9°F25.5°C 55.4°F13.0°C 45% 4.7 mph S7.6 kmh S 5.8 mph9.3 kmh 30.04 in1017.3 mb 0.00 in0.0 mm 0.00 in0.0 mm 0.00 in0.0 mm
01:15 PM 78.3°F25.7°C 55.4°F13.0°C 45% 4.7 mph S7.6 kmh S 8.7 mph14.0 kmh 30.04 in1017.3 mb 0.00 in0.0 mm 0.00 in0.0 mm 0.00 in0.0 mm
01:20 PM 78.4°F25.8°C 55.4°F13.0°C 44% 5.3 mph SSW8.5 kmh SSW 8.7 mph14.0 kmh 30.01 in1016.3 mb 0.00 in0.0 mm 0.00 in0.0 mm 0.00 in0.0 mm
01:25 PM 78.3°F25.7°C 55.4°F13.0°C 44% 5.9 mph SSW9.5 kmh SSW 8.7 mph14.0 kmh 30.01 in1016.3 mb 0.00 in0.0 mm 0.00 in0.0 mm 0.00 in0.0 mm
01:30 PM 78.8°F26.0°C 55.4°F13.0°C 44% 5.0 mph SSW8.0 kmh SSW 7.8 mph12.6 kmh 30.01 in1016.3 mb 0.00 in0.0 mm 0.00 in0.0 mm 0.00 in0.0 mm
01:35 PM 78.6°F25.9°C 55.4°F13.0°C 43% 4.7 mph S7.6 kmh S 8.5 mph13.7 kmh 30.01 in1016.3 mb 0.00 in0.0 mm 0.00 in0.0 mm 0.00 in0.0 mm
01:40 PM 79.2°F26.2°C 55.4°F13.0°C 43% 4.3 mph S6.9 kmh S 8.5 mph13.7 kmh 30.01 in1016.3 mb 0.00 in0.0 mm 0.00 in0.0 mm 0.00 in0.0 mm
01:45 PM 78.6°F25.9°C 55.4°F13.0°C 43% 4.5 mph S7.2 kmh S 8.1 mph13.0 kmh 30.01 in1016.3 mb 0.00 in0.0 mm 0.00 in0.0 mm 0.00 in0.0 mm
01:50 PM 78.4°F25.8°C 53.6°F12.0°C 43% 5.1 mph S8.2 kmh S 8.7 mph14.0 kmh 30.01 in1016.3 mb 0.00 in0.0 mm 0.00 in0.0 mm 0.00 in0.0 mm
01:55 PM 78.6°F25.9°C 55.4°F13.0°C 43% 4.8 mph S7.7 kmh S 8.7 mph14.0 kmh 30.01 in1016.3 mb 0.00 in0.0 mm 0.00 in0.0 mm 0.00 in0.0 mm
02:00 PM 78.6°F25.9°C 53.6°F12.0°C 42% 4.5 mph SSW7.2 kmh SSW 7.6 mph12.2 kmh 30.01 in1016.3 mb 0.00 in0.0 mm 0.00 in0.0 mm 0.00 in0.0 mm
02:05 PM 79.2°F26.2°C 55.4°F13.0°C 42% 4.3 mph SSW6.9 kmh SSW 7.8 mph12.6 kmh 30.01 in1016.3 mb 0.00 in0.0 mm 0.00 in0.0 mm 0.00 in0.0 mm
02:10 PM 78.8°F26.0°C 53.6°F12.0°C 42% 5.2 mph SSW8.4 kmh SSW 10.7 mph17.2 kmh 30.01 in1016.3 mb 0.00 in0.0 mm 0.00 in0.0 mm 0.00 in0.0 mm
02:15 PM 78.6°F25.9°C 53.6°F12.0°C 41% 5.9 mph SSW9.5 kmh SSW 10.7 mph17.2 kmh 30.01 in1016.3 mb 0.00 in0.0 mm 0.00 in0.0 mm 0.00 in0.0 mm
02:20 PM 78.3°F25.7°C 53.6°F12.0°C 41% 5.5 mph SW8.9 kmh SW 12.3 mph19.8 kmh 30.01 in1016.3 mb 0.00 in0.0 mm 0.00 in0.0 mm 0.00 in0.0 mm
02:25 PM 78.4°F25.8°C 53.6°F12.0°C 41% 5.5 mph SSW8.9 kmh SSW 12.3 mph19.8 kmh 30.01 in1016.3 mb 0.00 in0.0 mm 0.00 in0.0 mm 0.00 in0.0 mm
02:30 PM 78.1°F25.6°C 53.6°F12.0°C 41% 5.4 mph S8.7 kmh S 8.1 mph13.0 kmh 30.01 in1016.3 mb 0.00 in0.0 mm 0.00 in0.0 mm 0.00 in0.0 mm
02:35 PM 78.1°F25.6°C 53.6°F12.0°C 41% 5.6 mph SSW9.0 kmh SSW 8.1 mph13.0 kmh 30.01 in1016.3 mb 0.00 in0.0 mm 0.00 in0.0 mm 0.00 in0.0 mm
02:40 PM 77.9°F25.5°C 53.6°F12.0°C 41% 5.8 mph S9.3 kmh S 8.9 mph14.3 kmh 30.01 in1016.3 mb 0.00 in0.0 mm 0.00 in0.0 mm 0.00 in0.0 mm
02:45 PM 78.1°F25.6°C 53.6°F12.0°C 41% 4.8 mph S7.7 kmh S 8.9 mph14.3 kmh 30.01 in1016.3 mb 0.00 in0.0 mm 0.00 in0.0 mm 0.00 in0.0 mm
02:50 PM 78.3°F25.7°C 53.6°F12.0°C 41% 3.3 mph SSW5.3 kmh SSW 5.4 mph8.7 kmh 30.01 in1016.3 mb 0.00 in0.0 mm 0.00 in0.0 mm 0.00 in0.0 mm
02:55 PM 78.1°F25.6°C 53.6°F12.0°C 41% 4.0 mph SSW6.4 kmh SSW 7.2 mph11.6 kmh 30.01 in1016.3 mb 0.00 in0.0 mm 0.00 in0.0 mm 0.00 in0.0 mm
03:00 PM 77.7°F25.4°C 51.8°F11.0°C 41% 5.0 mph SSW8.0 kmh SSW 8.5 mph13.7 kmh 30.01 in1016.3 mb 0.00 in0.0 mm 0.00 in0.0 mm 0.00 in0.0 mm
03:05 PM 77.9°F25.5°C 53.6°F12.0°C 41% 4.8 mph SSW7.7 kmh SSW 8.5 mph13.7 kmh 30.01 in1016.3 mb 0.00 in0.0 mm 0.00 in0.0 mm 0.00 in0.0 mm
03:10 PM 77.5°F25.3°C 51.8°F11.0°C 41% 5.0 mph S8.0 kmh S 8.1 mph13.0 kmh 30.01 in1016.3 mb 0.00 in0.0 mm 0.00 in0.0 mm 0.00 in0.0 mm
03:15 PM 77.5°F25.3°C 51.8°F11.0°C 41% 4.6 mph S7.4 kmh S 8.1 mph13.0 kmh 30.01 in1016.3 mb 0.00 in0.0 mm 0.00 in0.0 mm 0.00 in0.0 mm
03:20 PM 77.7°F25.4°C 51.8°F11.0°C 41% 4.6 mph SW7.4 kmh SW 7.4 mph11.9 kmh 30.01 in1016.3 mb 0.00 in0.0 mm 0.00 in0.0 mm 0.00 in0.0 mm
03:25 PM 77.7°F25.4°C 51.8°F11.0°C 41% 4.3 mph SSW6.9 kmh SSW 7.4 mph11.9 kmh 30.01 in1016.3 mb 0.00 in0.0 mm 0.00 in0.0 mm 0.00 in0.0 mm
03:30 PM 77.5°F25.3°C 51.8°F11.0°C 41% 4.8 mph SSW7.7 kmh SSW 7.4 mph11.9 kmh 30.01 in1016.3 mb 0.00 in0.0 mm 0.00 in0.0 mm 0.00 in0.0 mm
03:35 PM 77.5°F25.3°C 51.8°F11.0°C 41% 4.8 mph SW7.7 kmh SW 7.4 mph11.9 kmh 30.01 in1016.3 mb 0.00 in0.0 mm 0.00 in0.0 mm 0.00 in0.0 mm
03:40 PM 77.4°F25.2°C 51.8°F11.0°C 41% 3.7 mph SW6.0 kmh SW 8.5 mph13.7 kmh 30.01 in1016.3 mb 0.00 in0.0 mm 0.00 in0.0 mm 0.00 in0.0 mm
03:45 PM 76.8°F24.9°C 51.8°F11.0°C 42% 3.9 mph S6.3 kmh S 8.5 mph13.7 kmh 30.01 in1016.3 mb 0.00 in0.0 mm 0.00 in0.0 mm 0.00 in0.0 mm
03:50 PM 76.6°F24.8°C 51.8°F11.0°C 42% 3.9 mph SSW6.3 kmh SSW 6.0 mph9.7 kmh 30.01 in1016.3 mb 0.00 in0.0 mm 0.00 in0.0 mm 0.00 in0.0 mm
03:55 PM 76.3°F24.6°C 51.8°F11.0°C 42% 4.2 mph SSW6.8 kmh SSW 6.9 mph11.1 kmh 30.01 in1016.3 mb 0.00 in0.0 mm 0.00 in0.0 mm 0.00 in0.0 mm
04:00 PM 76.1°F24.5°C 51.8°F11.0°C 43% 4.5 mph SW7.2 kmh SW 6.9 mph11.1 kmh 30.01 in1016.3 mb 0.00 in0.0 mm 0.00 in0.0 mm 0.00 in0.0 mm
04:05 PM 75.9°F24.4°C 51.8°F11.0°C 43% 3.6 mph SSW5.8 kmh SSW 6.9 mph11.1 kmh 30.01 in1016.3 mb 0.00 in0.0 mm 0.00 in0.0 mm 0.00 in0.0 mm
04:10 PM 75.7°F24.3°C 51.8°F11.0°C 43% 3.4 mph SSW5.5 kmh SSW 5.8 mph9.3 kmh 30.01 in1016.3 mb 0.00 in0.0 mm 0.00 in0.0 mm 0.00 in0.0 mm
04:15 PM 75.4°F24.1°C 51.8°F11.0°C 43% 3.4 mph SSW5.5 kmh SSW 5.8 mph9.3 kmh 30.01 in1016.3 mb 0.00 in0.0 mm 0.00 in0.0 mm 0.00 in0.0 mm
04:20 PM 75.4°F24.1°C 51.8°F11.0°C 43% 2.8 mph SSW4.5 kmh SSW 5.6 mph9.0 kmh 30.01 in1016.3 mb 0.00 in0.0 mm 0.00 in0.0 mm 0.00 in0.0 mm
04:25 PM 75.4°F24.1°C 51.8°F11.0°C 43% 3.0 mph SSW4.8 kmh SSW 6.5 mph10.5 kmh 30.01 in1016.3 mb 0.00 in0.0 mm 0.00 in0.0 mm 0.00 in0.0 mm
04:30 PM 75.2°F24.0°C 51.8°F11.0°C 43% 3.2 mph S5.1 kmh S 6.5 mph10.5 kmh 30.01 in1016.3 mb 0.00 in0.0 mm 0.00 in0.0 mm 0.00 in0.0 mm
04:35 PM 75.2°F24.0°C 51.8°F11.0°C 44% 3.1 mph S5.0 kmh S 6.5 mph10.5 kmh 30.01 in1016.3 mb 0.00 in0.0 mm 0.00 in0.0 mm 0.00 in0.0 mm
04:40 PM 75.2°F24.0°C 51.8°F11.0°C 44% 3.9 mph S6.3 kmh S 6.5 mph10.5 kmh 30.01 in1016.3 mb 0.00 in0.0 mm 0.00 in0.0 mm 0.00 in0.0 mm
04:45 PM 75.2°F24.0°C 51.8°F11.0°C 44% 5.2 mph SSW8.4 kmh SSW 7.2 mph11.6 kmh 30.01 in1016.3 mb 0.00 in0.0 mm 0.00 in0.0 mm 0.00 in0.0 mm
04:50 PM 75.0°F23.9°C 51.8°F11.0°C 44% 5.0 mph SSW8.0 kmh SSW 7.4 mph11.9 kmh 30.01 in1016.3 mb 0.00 in0.0 mm 0.00 in0.0 mm 0.00 in0.0 mm
04:55 PM 75.0°F23.9°C 53.6°F12.0°C 45% 4.1 mph S6.6 kmh S 7.4 mph11.9 kmh 30.01 in1016.3 mb 0.00 in0.0 mm 0.00 in0.0 mm 0.00 in0.0 mm
05:00 PM 75.0°F23.9°C 53.6°F12.0°C 45% 3.8 mph SSW6.1 kmh SSW 6.3 mph10.1 kmh 30.01 in1016.3 mb 0.00 in0.0 mm 0.00 in0.0 mm 0.00 in0.0 mm
05:05 PM 74.8°F23.8°C 51.8°F11.0°C 45% 3.7 mph SSW6.0 kmh SSW 6.5 mph10.5 kmh 30.01 in1016.3 mb 0.00 in0.0 mm 0.00 in0.0 mm 0.00 in0.0 mm
05:10 PM 74.7°F23.7°C 51.8°F11.0°C 45% 3.3 mph SW5.3 kmh SW 6.5 mph10.5 kmh 30.01 in1016.3 mb 0.00 in0.0 mm 0.00 in0.0 mm 0.00 in0.0 mm
05:15 PM 74.5°F23.6°C 51.8°F11.0°C 45% 3.0 mph SSW4.8 kmh SSW 3.6 mph5.8 kmh 30.01 in1016.3 mb 0.00 in0.0 mm 0.00 in0.0 mm 0.00 in0.0 mm
05:20 PM 74.5°F23.6°C 51.8°F11.0°C 45% 2.4 mph S3.9 kmh S 4.0 mph6.4 kmh 30.01 in1016.3 mb 0.00 in0.0 mm 0.00 in0.0 mm 0.00 in0.0 mm
05:25 PM 74.3°F23.5°C 51.8°F11.0°C 45% 2.4 mph S3.9 kmh S 4.0 mph6.4 kmh 30.01 in1016.3 mb 0.00 in0.0 mm 0.00 in0.0 mm 0.00 in0.0 mm
05:30 PM 73.9°F23.3°C 51.8°F11.0°C 46% 2.7 mph SSW4.3 kmh SSW 4.0 mph6.4 kmh 30.01 in1016.3 mb 0.00 in0.0 mm 0.00 in0.0 mm 0.00 in0.0 mm
05:35 PM 73.9°F23.3°C 51.8°F11.0°C 46% 2.8 mph S4.5 kmh S 6.3 mph10.1 kmh 30.01 in1016.3 mb 0.00 in0.0 mm 0.00 in0.0 mm 0.00 in0.0 mm
05:40 PM 73.8°F23.2°C 51.8°F11.0°C 46% 2.9 mph S4.7 kmh S 6.3 mph10.1 kmh 30.01 in1016.3 mb 0.00 in0.0 mm 0.00 in0.0 mm 0.00 in0.0 mm
05:45 PM 73.6°F23.1°C 51.8°F11.0°C 46% 2.9 mph S4.7 kmh S 4.3 mph6.9 kmh 30.01 in1016.3 mb 0.00 in0.0 mm 0.00 in0.0 mm 0.00 in0.0 mm
05:50 PM 73.4°F23.0°C 51.8°F11.0°C 46% 2.6 mph S4.2 kmh S 4.3 mph6.9 kmh 30.01 in1016.3 mb 0.00 in0.0 mm 0.00 in0.0 mm 0.00 in0.0 mm
05:55 PM 73.2°F22.9°C 51.8°F11.0°C 47% 2.4 mph SSW3.9 kmh SSW 5.8 mph9.3 kmh 30.01 in1016.3 mb 0.00 in0.0 mm 0.00 in0.0 mm 0.00 in0.0 mm
06:00 PM 72.9°F22.7°C 51.8°F11.0°C 48% 2.3 mph SSW3.7 kmh SSW 5.8 mph9.3 kmh 30.01 in1016.3 mb 0.00 in0.0 mm 0.00 in0.0 mm 0.00 in0.0 mm
06:05 PM 72.5°F22.5°C 51.8°F11.0°C 48% 1.7 mph SSW2.7 kmh SSW 3.1 mph5.0 kmh 30.01 in1016.3 mb 0.00 in0.0 mm 0.00 in0.0 mm 0.00 in0.0 mm
06:10 PM 72.3°F22.4°C 51.8°F11.0°C 48% 1.2 mph SW1.9 kmh SW 2.7 mph4.3 kmh 30.01 in1016.3 mb 0.00 in0.0 mm 0.00 in0.0 mm 0.00 in0.0 mm
06:15 PM 72.0°F22.2°C 51.8°F11.0°C 48% 1.2 mph SSW1.9 kmh SSW 2.7 mph4.3 kmh 30.01 in1016.3 mb 0.00 in0.0 mm 0.00 in0.0 mm 0.00 in0.0 mm
06:20 PM 71.6°F22.0°C 51.8°F11.0°C 49% 1.1 mph S1.8 kmh S 2.7 mph4.3 kmh 30.01 in1016.3 mb 0.00 in0.0 mm 0.00 in0.0 mm 0.00 in0.0 mm
06:25 PM 71.1°F21.7°C 51.8°F11.0°C 49% 0.6 mph S1.0 kmh S 2.2 mph3.5 kmh 30.01 in1016.3 mb 0.00 in0.0 mm 0.00 in0.0 mm 0.00 in0.0 mm
06:30 PM 71.1°F21.7°C 51.8°F11.0°C 49% 0.6 mph S1.0 kmh S 1.6 mph2.6 kmh 30.01 in1016.3 mb 0.00 in0.0 mm 0.00 in0.0 mm 0.00 in0.0 mm
06:35 PM 70.2°F21.2°C 51.8°F11.0°C 50% 0.8 mph SW1.3 kmh SW 1.6 mph2.6 kmh 30.04 in1017.3 mb 0.00 in0.0 mm 0.00 in0.0 mm 0.00 in0.0 mm
06:40 PM 70.3°F21.3°C 51.8°F11.0°C 50% 0.4 mph W0.6 kmh W 1.6 mph2.6 kmh 30.04 in1017.3 mb 0.00 in0.0 mm 0.00 in0.0 mm 0.00 in0.0 mm
06:45 PM 70.2°F21.2°C 51.8°F11.0°C 51% 0.2 mph S0.3 kmh S 1.6 mph2.6 kmh 30.04 in1017.3 mb 0.00 in0.0 mm 0.00 in0.0 mm 0.00 in0.0 mm
06:50 PM 70.0°F21.1°C 51.8°F11.0°C 51% 0.3 mph S0.5 kmh S 1.6 mph2.6 kmh 30.04 in1017.3 mb 0.00 in0.0 mm 0.00 in0.0 mm 0.00 in0.0 mm
06:55 PM 69.8°F21.0°C 51.8°F11.0°C 51% 0.1 mph SE0.2 kmh SE 0.9 mph1.4 kmh 30.04 in1017.3 mb 0.00 in0.0 mm 0.00 in0.0 mm 0.00 in0.0 mm
07:00 PM 69.4°F20.8°C 51.8°F11.0°C 53% 0.1 mph SSE0.2 kmh SSE 0.9 mph1.4 kmh 30.04 in1017.3 mb 0.00 in0.0 mm 0.00 in0.0 mm 0.00 in0.0 mm
07:05 PM 69.4°F20.8°C 51.8°F11.0°C 53% 0.2 mph S0.3 kmh S 0.9 mph1.4 kmh 30.04 in1017.3 mb 0.00 in0.0 mm 0.00 in0.0 mm 0.00 in0.0 mm
07:10 PM 69.4°F20.8°C 51.8°F11.0°C 53% 0.2 mph S0.3 kmh S 0.9 mph1.4 kmh 30.04 in1017.3 mb 0.00 in0.0 mm 0.00 in0.0 mm 0.00 in0.0 mm
07:15 PM 69.3°F20.7°C 51.8°F11.0°C 53% 0.2 mph S0.3 kmh S 0.9 mph1.4 kmh 30.04 in1017.3 mb 0.00 in0.0 mm 0.00 in0.0 mm 0.00 in0.0 mm
07:20 PM 69.1°F20.6°C 51.8°F11.0°C 54% 0.1 mph S0.2 kmh S 0.9 mph1.4 kmh 30.04 in1017.3 mb 0.00 in0.0 mm 0.00 in0.0 mm 0.00 in0.0 mm
07:25 PM 68.7°F20.4°C 51.8°F11.0°C 54% Calm Calm -- 30.04 in1017.3 mb 0.00 in0.0 mm 0.00 in0.0 mm 0.00 in0.0 mm
07:30 PM 68.5°F20.3°C 51.8°F11.0°C 55% Calm Calm -- 30.04 in1017.3 mb 0.00 in0.0 mm 0.00 in0.0 mm 0.00 in0.0 mm
07:35 PM 68.4°F20.2°C 51.8°F11.0°C 55% Calm Calm -- 30.04 in1017.3 mb 0.00 in0.0 mm 0.00 in0.0 mm 0.00 in0.0 mm
07:40 PM 68.4°F20.2°C 51.8°F11.0°C 56% Calm Calm -- 30.04 in1017.3 mb 0.00 in0.0 mm 0.00 in0.0 mm 0.00 in0.0 mm
07:45 PM 68.4°F20.2°C 51.8°F11.0°C 56% Calm Calm -- 30.04 in1017.3 mb 0.00 in0.0 mm 0.00 in0.0 mm 0.00 in0.0 mm
07:50 PM 68.2°F20.1°C 51.8°F11.0°C 56% Calm Calm -- 30.04 in1017.3 mb 0.00 in0.0 mm 0.00 in0.0 mm 0.00 in0.0 mm
07:55 PM 67.8°F19.9°C 53.6°F12.0°C 58% Calm Calm -- 30.04 in1017.3 mb 0.00 in0.0 mm 0.00 in0.0 mm 0.00 in0.0 mm
08:00 PM 67.5°F19.7°C 51.8°F11.0°C 58% Calm Calm -- 30.04 in1017.3 mb 0.00 in0.0 mm 0.00 in0.0 mm 0.00 in0.0 mm
08:05 PM 67.3°F19.6°C 51.8°F11.0°C 58% Calm Calm -- 30.04 in1017.3 mb 0.00 in0.0 mm 0.00 in0.0 mm 0.00 in0.0 mm
08:10 PM 66.9°F19.4°C 51.8°F11.0°C 59% Calm Calm -- 30.04 in1017.3 mb 0.00 in0.0 mm 0.00 in0.0 mm 0.00 in0.0 mm
08:15 PM 66.9°F19.4°C 51.8°F11.0°C 59% Calm Calm -- 30.04 in1017.3 mb 0.00 in0.0 mm 0.00 in0.0 mm 0.00 in0.0 mm
08:20 PM 66.9°F19.4°C 51.8°F11.0°C 59% 0.1 mph E0.2 kmh E 1.3 mph2.1 kmh 30.04 in1017.3 mb 0.00 in0.0 mm 0.00 in0.0 mm 0.00 in0.0 mm
08:25 PM 66.7°F19.3°C 51.8°F11.0°C 59% 0.3 mph E0.5 kmh E 1.3 mph2.1 kmh 30.04 in1017.3 mb 0.00 in0.0 mm 0.00 in0.0 mm 0.00 in0.0 mm
08:30 PM 66.6°F19.2°C 51.8°F11.0°C 59% 0.2 mph ESE0.3 kmh ESE 1.3 mph2.1 kmh 30.04 in1017.3 mb 0.00 in0.0 mm 0.00 in0.0 mm 0.00 in0.0 mm
08:35 PM 66.6°F19.2°C 51.8°F11.0°C 58% 0.1 mph S0.2 kmh S 0.9 mph1.4 kmh 30.04 in1017.3 mb 0.00 in0.0 mm 0.00 in0.0 mm 0.00 in0.0 mm
08:40 PM 66.6°F19.2°C 51.8°F11.0°C 58% 0.1 mph S0.2 kmh S 0.9 mph1.4 kmh 30.04 in1017.3 mb 0.00 in0.0 mm 0.00 in0.0 mm 0.00 in0.0 mm
08:45 PM 66.4°F19.1°C 50.0°F10.0°C 57% 1.4 mph E2.3 kmh E 4.5 mph7.2 kmh 30.04 in1017.3 mb 0.00 in0.0 mm 0.00 in0.0 mm 0.00 in0.0 mm
08:50 PM 66.2°F19.0°C 51.8°F11.0°C 58% 1.4 mph E2.3 kmh E 4.5 mph7.2 kmh 30.04 in1017.3 mb 0.00 in0.0 mm 0.00 in0.0 mm 0.00 in0.0 mm
08:55 PM 66.0°F18.9°C 51.8°F11.0°C 58% 0.9 mph SE1.4 kmh SE 3.4 mph5.5 kmh 30.04 in1017.3 mb 0.00 in0.0 mm 0.00 in0.0 mm 0.00 in0.0 mm
09:00 PM 65.8°F18.8°C 50.0°F10.0°C 58% 1.7 mph ESE2.7 kmh ESE 3.4 mph5.5 kmh 30.04 in1017.3 mb 0.00 in0.0 mm 0.00 in0.0 mm 0.00 in0.0 mm
09:05 PM 65.8°F18.8°C 50.0°F10.0°C 58% 1.9 mph E3.1 kmh E 3.6 mph5.8 kmh 30.04 in1017.3 mb 0.00 in0.0 mm 0.00 in0.0 mm 0.00 in0.0 mm
09:10 PM 65.7°F18.7°C 50.0°F10.0°C 58% 1.8 mph E2.9 kmh E 3.6 mph5.8 kmh 30.04 in1017.3 mb 0.00 in0.0 mm 0.00 in0.0 mm 0.00 in0.0 mm
09:15 PM 65.7°F18.7°C 50.0°F10.0°C 58% 1.5 mph ESE2.4 kmh ESE 3.4 mph5.5 kmh 30.04 in1017.3 mb 0.00 in0.0 mm 0.00 in0.0 mm 0.00 in0.0 mm
09:20 PM 65.5°F18.6°C 50.0°F10.0°C 58% 2.4 mph E3.9 kmh E 3.6 mph5.8 kmh 30.04 in1017.3 mb 0.00 in0.0 mm 0.00 in0.0 mm 0.00 in0.0 mm
09:25 PM 65.5°F18.6°C 50.0°F10.0°C 58% 3.0 mph E4.8 kmh E 3.8 mph6.1 kmh 30.04 in1017.3 mb 0.00 in0.0 mm 0.00 in0.0 mm 0.00 in0.0 mm
09:30 PM 65.3°F18.5°C 50.0°F10.0°C 58% 2.9 mph E4.7 kmh E 3.8 mph6.1 kmh 30.04 in1017.3 mb 0.00 in0.0 mm 0.00 in0.0 mm 0.00 in0.0 mm
09:35 PM 65.1°F18.4°C 50.0°F10.0°C 58% 2.6 mph E4.2 kmh E 3.4 mph5.5 kmh 30.04 in1017.3 mb 0.00 in0.0 mm 0.00 in0.0 mm 0.00 in0.0 mm
09:40 PM 64.9°F18.3°C 50.0°F10.0°C 59% 2.2 mph E3.5 kmh E 3.4 mph5.5 kmh 30.04 in1017.3 mb 0.00 in0.0 mm 0.00 in0.0 mm 0.00 in0.0 mm
09:45 PM 64.8°F18.2°C 50.0°F10.0°C 59% 1.7 mph ENE2.7 kmh ENE 2.2 mph3.5 kmh 30.04 in1017.3 mb 0.00 in0.0 mm 0.00 in0.0 mm 0.00 in0.0 mm
09:50 PM 64.8°F18.2°C 50.0°F10.0°C 59% 1.8 mph E2.9 kmh E 2.9 mph4.7 kmh 30.04 in1017.3 mb 0.00 in0.0 mm 0.00 in0.0 mm 0.00 in0.0 mm
09:55 PM 64.8°F18.2°C 50.0°F10.0°C 59% 2.3 mph ENE3.7 kmh ENE 2.9 mph4.7 kmh 30.04 in1017.3 mb 0.00 in0.0 mm 0.00 in0.0 mm 0.00 in0.0 mm
10:00 PM 64.6°F18.1°C 50.0°F10.0°C 59% 1.4 mph NE2.3 kmh NE 2.7 mph4.3 kmh 30.04 in1017.3 mb 0.00 in0.0 mm 0.00 in0.0 mm 0.00 in0.0 mm
10:05 PM 64.6°F18.1°C 50.0°F10.0°C 60% 0.7 mph NE1.1 kmh NE 1.6 mph2.6 kmh 30.04 in1017.3 mb 0.00 in0.0 mm 0.00 in0.0 mm 0.00 in0.0 mm
10:10 PM 64.4°F18.0°C 50.0°F10.0°C 60% 1.3 mph ENE2.1 kmh ENE 2.0 mph3.2 kmh 30.04 in1017.3 mb 0.00 in0.0 mm 0.00 in0.0 mm 0.00 in0.0 mm
10:15 PM 64.4°F18.0°C 50.0°F10.0°C 60% 1.3 mph ENE2.1 kmh ENE 2.0 mph3.2 kmh 30.04 in1017.3 mb 0.00 in0.0 mm 0.00 in0.0 mm 0.00 in0.0 mm
10:20 PM 64.4°F18.0°C 50.0°F10.0°C 60% 1.0 mph E1.6 kmh E 2.0 mph3.2 kmh 30.04 in1017.3 mb 0.00 in0.0 mm 0.00 in0.0 mm 0.00 in0.0 mm
10:25 PM 64.4°F18.0°C 50.0°F10.0°C 61% 1.1 mph ENE1.8 kmh ENE 2.0 mph3.2 kmh 30.04 in1017.3 mb 0.00 in0.0 mm 0.00 in0.0 mm 0.00 in0.0 mm
10:30 PM 64.2°F17.9°C 50.0°F10.0°C 61% 1.3 mph ENE2.1 kmh ENE 2.0 mph3.2 kmh 30.04 in1017.3 mb 0.00 in0.0 mm 0.00 in0.0 mm 0.00 in0.0 mm
10:35 PM 64.0°F17.8°C 50.0°F10.0°C 61% 1.5 mph E2.4 kmh E 2.7 mph4.3 kmh 30.04 in1017.3 mb 0.00 in0.0 mm 0.00 in0.0 mm 0.00 in0.0 mm
10:40 PM 64.0°F17.8°C 50.0°F10.0°C 61% 1.8 mph E2.9 kmh E 2.9 mph4.7 kmh 30.04 in1017.3 mb 0.00 in0.0 mm 0.00 in0.0 mm 0.00 in0.0 mm
10:45 PM 64.0°F17.8°C 50.0°F10.0°C 61% 2.0 mph E3.2 kmh E 2.9 mph4.7 kmh 30.04 in1017.3 mb 0.00 in0.0 mm 0.00 in0.0 mm 0.00 in0.0 mm
10:50 PM 64.0°F17.8°C 50.0°F10.0°C 61% 1.3 mph E2.1 kmh E 2.9 mph4.7 kmh 30.04 in1017.3 mb 0.00 in0.0 mm 0.00 in0.0 mm 0.00 in0.0 mm
10:55 PM 64.0°F17.8°C 50.0°F10.0°C 61% 0.8 mph E1.3 kmh E 2.2 mph3.5 kmh 30.04 in1017.3 mb 0.00 in0.0 mm 0.00 in0.0 mm 0.00 in0.0 mm
11:00 PM 64.0°F17.8°C 50.0°F10.0°C 62% 1.0 mph E1.6 kmh E 2.2 mph3.5 kmh 30.04 in1017.3 mb 0.00 in0.0 mm 0.00 in0.0 mm 0.00 in0.0 mm
11:05 PM 64.0°F17.8°C 50.0°F10.0°C 62% 1.2 mph E1.9 kmh E 2.0 mph3.2 kmh 30.04 in1017.3 mb 0.00 in0.0 mm 0.00 in0.0 mm 0.00 in0.0 mm
11:10 PM 63.9°F17.7°C 50.0°F10.0°C 62% 1.5 mph E2.4 kmh E 2.5 mph4.0 kmh 30.04 in1017.3 mb 0.00 in0.0 mm 0.00 in0.0 mm 0.00 in0.0 mm
11:15 PM 63.7°F17.6°C 50.0°F10.0°C 62% 1.4 mph E2.3 kmh E 2.5 mph4.0 kmh 30.04 in1017.3 mb 0.00 in0.0 mm 0.00 in0.0 mm 0.00 in0.0 mm
11:20 PM 63.5°F17.5°C 50.0°F10.0°C 62% 1.4 mph ENE2.3 kmh ENE 2.5 mph4.0 kmh 30.04 in1017.3 mb 0.00 in0.0 mm 0.00 in0.0 mm 0.00 in0.0 mm
11:25 PM 63.1°F17.3°C 50.0°F10.0°C 62% 1.9 mph ENE3.1 kmh ENE 3.6 mph5.8 kmh 30.04 in1017.3 mb 0.00 in0.0 mm 0.00 in0.0 mm 0.00 in0.0 mm
11:30 PM 63.0°F17.2°C 50.0°F10.0°C 63% 1.6 mph E2.6 kmh E 3.6 mph5.8 kmh 30.04 in1017.3 mb 0.00 in0.0 mm 0.00 in0.0 mm 0.00 in0.0 mm
11:35 PM 62.8°F17.1°C 50.0°F10.0°C 63% 1.2 mph E1.9 kmh E 2.5 mph4.0 kmh 30.04 in1017.3 mb 0.00 in0.0 mm 0.00 in0.0 mm 0.00 in0.0 mm
11:40 PM 62.6°F17.0°C 50.0°F10.0°C 63% 0.9 mph E1.4 kmh E 2.5 mph4.0 kmh 30.04 in1017.3 mb 0.00 in0.0 mm 0.00 in0.0 mm 0.00 in0.0 mm
11:45 PM 62.2°F16.8°C 50.0°F10.0°C 64% 0.5 mph E0.8 kmh E 2.5 mph4.0 kmh 30.04 in1017.3 mb 0.00 in0.0 mm 0.00 in0.0 mm 0.00 in0.0 mm
11:50 PM 62.1°F16.7°C 50.0°F10.0°C 65% 0.3 mph ENE0.5 kmh ENE 1.3 mph2.1 kmh 30.04 in1017.3 mb 0.00 in0.0 mm 0.00 in0.0 mm 0.00 in0.0 mm
11:55 PM 61.7°F16.5°C 50.0°F10.0°C 65% 0.8 mph ENE1.3 kmh ENE 1.6 mph2.6 kmh 30.04 in1017.3 mb 0.00 in0.0 mm 0.00 in0.0 mm 0.00 in0.0 mm